Iona Mcallister — WDD4840 — position and weather

sailwx.info

Track history (hours):
 
Tides and Currents Weather Stations Pressure Air Temp Water Temp Dewpoint Dewpoint Depression Visibility Wind Speed Wind Dir Waves Ship Positions

Iona Mcallister

Owner: McAllister Towing & Transportation Co. Inc., Staten Island, NY. More information available from US FCC via Universal Licensing System and Coast Guard Vessel Documentation Center.

Last reported at 2014-Oct-23 02:33 UTC. Time now 2014-Oct-23 03:18 UTC.
Position N 41°37' W 071°24'.

Length 36 m; draft 4 m.

Type: Towing. MMSI: 367149890.

Date/timePositionNaut miles runAvg speedWind from/ knotsBaromVisibWave heightAir tempDewpointWater temp
2014-Oct-23 02:33N 41°37' W 071°24'0 0.0
2014-Oct-23 01:33N 41°37' W 071°24'0 0.0
2014-Oct-23 00:33N 41°37' W 071°24'0 0.0
2014-Oct-22 23:32N 41°37' W 071°24'0 0.0
2014-Oct-22 22:32N 41°37' W 071°24'0 0.0
2014-Oct-22 21:33N 41°37' W 071°24'2 2.1
2014-Oct-22 20:29N 41°35' W 071°23'4 4.5
2014-Oct-22 19:33N 41°31' W 071°22'0 0.0
2014-Oct-22 18:33N 41°31' W 071°21'0 0.0
2014-Oct-22 17:33N 41°31' W 071°21'3 3.3
2014-Oct-22 16:33N 41°34' W 071°21'4 3.5
2014-Oct-22 15:32N 41°37' W 071°24'0 0.0
2014-Oct-22 14:33N 41°37' W 071°24'5 4.7
2014-Oct-22 13:27N 41°32' W 071°21'7 7.3
2014-Oct-22 12:33N 41°26' W 071°20'21 3.4
2014-Oct-22 06:20N 41°30' W 070°52'4 3.9
2014-Oct-22 05:17N 41°28' W 070°57'3 3.7
2014-Oct-22 04:33N 41°27' W 071°00'3 3.4
2014-Oct-22 03:33N 41°24' W 071°03'8 8.0
2014-Oct-22 02:33N 41°25' W 071°14'7 6.8
2014-Oct-22 01:33N 41°30' W 071°21'1010.2
2014-Oct-22 00:33N 41°40' W 071°19'8 8.3
2014-Oct-21 23:34N 41°47' W 071°23'1 0.7
2014-Oct-21 22:33N 41°48' W 071°23'0 0.0
2014-Oct-21 21:04N 41°48' W 071°23'0 0.2
2014-Oct-21 18:33N 41°48' W 071°24'1 0.8
2014-Oct-21 17:33N 41°49' W 071°24'0 0.0
2014-Oct-21 16:33N 41°49' W 071°24'0 0.0
2014-Oct-21 15:33N 41°49' W 071°24'0 0.0
2014-Oct-21 14:33N 41°49' W 071°24'0 0.0
2014-Oct-21 13:33N 41°49' W 071°24'1 0.8
2014-Oct-21 12:33N 41°48' W 071°24'2 1.5
2014-Oct-21 11:32N 41°47' W 071°22'2 1.6
2014-Oct-21 10:32N 41°48' W 071°24'1 0.8
2014-Oct-21 09:33N 41°49' W 071°24'0 0.0
2014-Oct-21 08:33N 41°49' W 071°24'0 0.0
2014-Oct-21 07:33N 41°49' W 071°24'0 0.0
2014-Oct-21 06:33N 41°49' W 071°24'7 7.2
2014-Oct-21 05:33N 41°42' W 071°20'9 9.0
2014-Oct-21 04:32N 41°33' W 071°19'7 7.5
2014-Oct-21 03:33N 41°26' W 071°20'13 1.4
2014-Oct-20 18:24N 41°25' W 071°03'7 8.9
2014-Oct-20 17:33N 41°25' W 071°13'7 6.9
2014-Oct-20 16:33N 41°29' W 071°21'8 8.1
2014-Oct-20 15:34N 41°37' W 071°24'0 0.2
2014-Oct-20 13:23N 41°37' W 071°24'0 0.0
2014-Oct-20 12:33N 41°37' W 071°24'0 0.0
2014-Oct-20 11:33N 41°37' W 071°24'0 0.0
2014-Oct-20 10:33N 41°37' W 071°24'0 0.0
2014-Oct-20 09:33N 41°37' W 071°24'0 0.0
2014-Oct-20 08:33N 41°37' W 071°24'0 0.0
2014-Oct-20 07:33N 41°37' W 071°24'0 0.0
2014-Oct-20 06:33N 41°37' W 071°24'0 0.0
2014-Oct-20 05:33N 41°37' W 071°24'0 0.0
2014-Oct-20 04:33N 41°37' W 071°24'0 0.0
2014-Oct-20 03:33N 41°37' W 071°24'1 0.8
2014-Oct-20 02:33N 41°36' W 071°24'1 1.1
2014-Oct-20 01:32N 41°35' W 071°24'1 1.2
2014-Oct-20 00:27N 41°35' W 071°23'7 7.8
2014-Oct-19 23:33N 41°28' W 071°22'14 1.9
2014-Oct-19 16:19N 41°24' W 071°04'5 7.2
2014-Oct-19 15:33N 41°23' W 071°12'9 8.8
2014-Oct-19 14:33N 41°27' W 071°22'9 9.2
2014-Oct-19 13:33N 41°36' W 071°18'7 7.2
2014-Oct-19 12:33N 41°43' W 071°20'7 6.8
2014-Oct-19 11:33N 41°49' W 071°24'0 0.0
2014-Oct-19 10:33N 41°49' W 071°24'0 0.0
2014-Oct-19 09:33N 41°49' W 071°24'0 0.0
2014-Oct-19 08:33N 41°49' W 071°24'0 0.0
2014-Oct-19 07:33N 41°49' W 071°24'0 0.0
2014-Oct-19 06:33N 41°49' W 071°24'0 0.0
2014-Oct-19 05:33N 41°49' W 071°24'0 0.0
2014-Oct-19 04:33N 41°49' W 071°24'0 0.0
2014-Oct-19 03:33N 41°49' W 071°24'0 0.0
2014-Oct-19 02:33N 41°49' W 071°24'1 0.8
2014-Oct-19 01:33N 41°48' W 071°24'1 0.8
2014-Oct-19 00:33N 41°49' W 071°24'0 0.0
2014-Oct-18 23:33N 41°49' W 071°24'0 0.0
2014-Oct-18 22:33N 41°49' W 071°24'0 0.0
2014-Oct-18 21:33N 41°49' W 071°24'0 0.0
2014-Oct-18 20:33N 41°49' W 071°24'0 0.0
2014-Oct-18 19:32N 41°49' W 071°24'0 0.0
2014-Oct-18 18:33N 41°49' W 071°24'0 0.0
2014-Oct-18 17:33N 41°49' W 071°24'2 2.3
2014-Oct-18 16:33N 41°47' W 071°22'2 2.3
2014-Oct-18 15:33N 41°49' W 071°24'0 0.0
2014-Oct-18 14:33N 41°49' W 071°24'0 0.0
2014-Oct-18 13:33N 41°49' W 071°24'0 0.0
2014-Oct-18 12:33N 41°49' W 071°24'0 0.0
2014-Oct-18 11:33N 41°49' W 071°24'0 0.0
2014-Oct-18 10:33N 41°49' W 071°24'0 0.0
2014-Oct-18 09:33N 41°49' W 071°24'0 0.0
2014-Oct-18 08:33N 41°49' W 071°24'1 1.2
2014-Oct-18 07:33N 41°48' W 071°23'0 0.0
2014-Oct-18 06:30N 41°48' W 071°23'0 0.0
2014-Oct-18 05:31N 41°48' W 071°23'1 0.7
2014-Oct-18 04:33N 41°47' W 071°23'7 6.9
2014-Oct-18 03:33N 41°41' W 071°21'5 4.6
2014-Oct-18 02:33N 41°37' W 071°24'0 0.0
2014-Oct-18 01:33N 41°37' W 071°24'0 0.0
2014-Oct-18 00:33N 41°37' W 071°24'0 0.0
2014-Oct-17 23:33N 41°37' W 071°24'0 0.0
2014-Oct-17 22:33N 41°37' W 071°24'0 0.0
2014-Oct-17 21:30N 41°37' W 071°24'0 0.0
2014-Oct-17 20:32N 41°37' W 071°24'0 0.0
2014-Oct-17 19:30N 41°37' W 071°24'0 0.0
2014-Oct-17 18:33N 41°37' W 071°24'0 0.0
2014-Oct-17 17:33N 41°37' W 071°24'0 0.3
2014-Oct-17 16:33N 41°37' W 071°24'8 8.2
2014-Oct-17 15:33N 41°29' W 071°21'7 6.6
2014-Oct-17 14:32N 41°24' W 071°15'8 7.5
2014-Oct-17 13:30N 41°24' W 071°05'8 7.8
2014-Oct-17 12:32N 41°29' W 070°57'3 1.0
2014-Oct-17 09:10N 41°30' W 070°52'4 5.1
2014-Oct-17 08:27N 41°28' W 070°57'5 5.2
2014-Oct-17 07:33N 41°26' W 071°02'5 4.6
2014-Oct-17 06:33N 41°25' W 071°08'5 5.3
2014-Oct-17 05:33N 41°29' W 071°13'6 5.5
2014-Oct-17 04:33N 41°35' W 071°13'4 4.0
2014-Oct-17 03:31N 41°39' W 071°15'6 6.5
2014-Oct-17 02:33N 41°43' W 071°21'4 4.4
2014-Oct-17 01:33N 41°47' W 071°23'0 0.0
2014-Oct-17 00:33N 41°47' W 071°23'1 0.6
2014-Oct-16 23:33N 41°47' W 071°22'2 1.6
2014-Oct-16 22:33N 41°48' W 071°24'1 0.7
2014-Oct-16 21:32N 41°48' W 071°23'1 1.5
2014-Oct-16 20:33N 41°49' W 071°24'2 2.1
2014-Oct-16 19:33N 41°47' W 071°23'8 8.1
2014-Oct-16 18:32N 41°39' W 071°22'2 2.5
2014-Oct-16 17:32N 41°37' W 071°24'0 0.0
2014-Oct-16 16:32N 41°37' W 071°24'0 0.0
2014-Oct-16 15:33N 41°37' W 071°24'0 0.0
2014-Oct-16 14:33N 41°37' W 071°24'0 0.0
2014-Oct-16 13:33N 41°37' W 071°24'0 0.0
2014-Oct-16 12:31N 41°37' W 071°24'0 0.0
2014-Oct-16 11:33N 41°37' W 071°24'0 0.0
2014-Oct-16 10:33N 41°37' W 071°24'1 0.7
2014-Oct-16 09:33N 41°36' W 071°24'1 1.2
2014-Oct-16 08:33N 41°35' W 071°25'0 0.0
2014-Oct-16 07:33N 41°35' W 071°24'0 0.0
2014-Oct-16 06:33N 41°35' W 071°24'0 0.0
2014-Oct-16 05:33N 41°35' W 071°25'6 6.3
2014-Oct-16 04:33N 41°41' W 071°21'6 6.2
2014-Oct-16 03:33N 41°47' W 071°22'2 2.3
2014-Oct-16 02:33N 41°49' W 071°24'0 0.0
2014-Oct-16 01:33N 41°49' W 071°24'0 0.0
2014-Oct-16 00:33N 41°49' W 071°24'0 0.0
2014-Oct-15 23:33N 41°49' W 071°24'4 4.5
2014-Oct-15 22:33N 41°45' W 071°22'9 9.1
2014-Oct-15 21:33N 41°36' W 071°18'9 9.1
2014-Oct-15 20:33N 41°28' W 071°22'8 8.2
2014-Oct-15 19:33N 41°26' W 071°11'10 9.6
2014-Oct-15 18:33N 41°28' W 070°59'10 9.5
2014-Oct-15 17:33N 41°33' W 070°48'14 3.3
2014-Oct-15 13:11N 41°45' W 070°36'7 6.7
2014-Oct-15 12:09N 41°39' W 070°41'5 7.7
2014-Oct-15 11:33N 41°35' W 070°44'4 4.1
2014-Oct-15 10:30N 41°32' W 070°48'6 6.8
2014-Oct-15 09:33N 41°29' W 070°55'7 6.7
2014-Oct-15 08:33N 41°25' W 071°03'7 7.5
2014-Oct-15 07:33N 41°25' W 071°13'7 6.7
2014-Oct-15 06:33N 41°26' W 071°22'7 6.8
2014-Oct-15 05:33N 41°33' W 071°21'4 3.7
2014-Oct-15 04:33N 41°35' W 071°24'0 0.0
2014-Oct-15 03:33N 41°35' W 071°24'0 0.0
2014-Oct-15 02:33N 41°35' W 071°24'0 0.0
2014-Oct-15 01:33N 41°35' W 071°24'1 1.0
2014-Oct-15 00:33N 41°36' W 071°24'1 0.9
2014-Oct-14 23:33N 41°37' W 071°24'0 0.0
2014-Oct-14 22:33N 41°37' W 071°24'0 0.0
2014-Oct-14 21:33N 41°37' W 071°24'0 0.0
2014-Oct-14 20:33N 41°37' W 071°24'0 0.0
2014-Oct-14 19:32N 41°37' W 071°24'0 0.0
2014-Oct-14 18:33N 41°37' W 071°24'0 0.0
2014-Oct-14 17:33N 41°37' W 071°24'0 0.0
2014-Oct-14 16:33N 41°37' W 071°24'0 0.0
2014-Oct-14 15:33N 41°37' W 071°24'0 0.0
2014-Oct-14 14:33N 41°37' W 071°24'0 0.0
2014-Oct-14 13:33N 41°37' W 071°24'0 0.0
2014-Oct-14 12:33N 41°37' W 071°24'0 0.0
2014-Oct-14 11:33N 41°37' W 071°24'0 0.0
2014-Oct-14 10:32N 41°37' W 071°24'1 0.6
2014-Oct-14 09:32N 41°36' W 071°24'1 1.4
2014-Oct-14 08:33N 41°35' W 071°24'0 0.0
2014-Oct-14 07:33N 41°35' W 071°24'6 6.1
2014-Oct-14 06:33N 41°41' W 071°21'8 7.6
2014-Oct-14 05:33N 41°48' W 071°23'1 1.0
2014-Oct-14 04:33N 41°49' W 071°24'0 0.0
2014-Oct-14 03:33N 41°49' W 071°24'0 0.0
2014-Oct-14 02:33N 41°49' W 071°24'0 0.0
2014-Oct-14 01:33N 41°49' W 071°24'0 0.0
2014-Oct-14 00:33N 41°49' W 071°24'0 0.0
2014-Oct-13 23:33N 41°49' W 071°24'0 0.0
2014-Oct-13 22:33N 41°49' W 071°24'0 0.0
2014-Oct-13 21:33N 41°49' W 071°24'0 0.0
2014-Oct-13 20:33N 41°49' W 071°24'5 4.8
2014-Oct-13 19:33N 41°44' W 071°22'9 8.7
2014-Oct-13 18:31N 41°36' W 071°18'9 9.2
2014-Oct-13 17:32N 41°27' W 071°22'9 8.8
2014-Oct-13 16:33N 41°26' W 071°11'9 9.4
2014-Oct-13 15:33N 41°28' W 070°59'9 9.4
2014-Oct-13 14:33N 41°34' W 070°48'10 9.6
2014-Oct-13 13:33N 41°41' W 070°40'5 2.1
2014-Oct-13 11:19N 41°45' W 070°36'5 6.5
2014-Oct-13 10:33N 41°41' W 070°41'8 7.6
2014-Oct-13 09:28N 41°33' W 070°45'7 5.4
2014-Oct-13 08:06N 41°29' W 070°54'4 7.4
2014-Oct-13 07:34N 41°28' W 070°59'6 5.6
2014-Oct-13 06:33N 41°25' W 071°05'9 8.5
2014-Oct-13 05:33N 41°25' W 071°16'7 6.5
2014-Oct-13 04:33N 41°31' W 071°20'9 9.3
2014-Oct-13 03:33N 41°41' W 071°19'9 8.7
2014-Oct-13 02:33N 41°48' W 071°24'  
Track history (hours):
 
Tides and Currents Weather Stations Pressure Air Temp Water Temp Dewpoint Dewpoint Depression Visibility Wind Speed Wind Dir Waves Ship Positions

Iona Mcallister

Owner: McAllister Towing & Transportation Co. Inc., Staten Island, NY. More information available from US FCC via Universal Licensing System and Coast Guard Vessel Documentation Center.

Last reported at 2014-Oct-23 02:33 UTC. Time now 2014-Oct-23 03:18 UTC.
Position N 41°37' W 071°24'.

Length 36 m; draft 4 m.

Type: Towing. MMSI: 367149890.

Date/timePositionNaut miles runAvg speedWind from/ knotsBaromVisibWave heightAir tempDewpointWater temp
2014-Oct-23 02:33N 41°37' W 071°24'0 0.0
2014-Oct-23 01:33N 41°37' W 071°24'0 0.0
2014-Oct-23 00:33N 41°37' W 071°24'0 0.0
2014-Oct-22 23:32N 41°37' W 071°24'0 0.0
2014-Oct-22 22:32N 41°37' W 071°24'0 0.0
2014-Oct-22 21:33N 41°37' W 071°24'2 2.1
2014-Oct-22 20:29N 41°35' W 071°23'4 4.5
2014-Oct-22 19:33N 41°31' W 071°22'0 0.0
2014-Oct-22 18:33N 41°31' W 071°21'0 0.0
2014-Oct-22 17:33N 41°31' W 071°21'3 3.3
2014-Oct-22 16:33N 41°34' W 071°21'4 3.5
2014-Oct-22 15:32N 41°37' W 071°24'0 0.0
2014-Oct-22 14:33N 41°37' W 071°24'5 4.7
2014-Oct-22 13:27N 41°32' W 071°21'7 7.3
2014-Oct-22 12:33N 41°26' W 071°20'21 3.4
2014-Oct-22 06:20N 41°30' W 070°52'4 3.9
2014-Oct-22 05:17N 41°28' W 070°57'3 3.7
2014-Oct-22 04:33N 41°27' W 071°00'3 3.4
2014-Oct-22 03:33N 41°24' W 071°03'8 8.0
2014-Oct-22 02:33N 41°25' W 071°14'7 6.8
2014-Oct-22 01:33N 41°30' W 071°21'1010.2
2014-Oct-22 00:33N 41°40' W 071°19'8 8.3
2014-Oct-21 23:34N 41°47' W 071°23'1 0.7
2014-Oct-21 22:33N 41°48' W 071°23'0 0.0
2014-Oct-21 21:04N 41°48' W 071°23'0 0.2
2014-Oct-21 18:33N 41°48' W 071°24'1 0.8
2014-Oct-21 17:33N 41°49' W 071°24'0 0.0
2014-Oct-21 16:33N 41°49' W 071°24'0 0.0
2014-Oct-21 15:33N 41°49' W 071°24'0 0.0
2014-Oct-21 14:33N 41°49' W 071°24'0 0.0
2014-Oct-21 13:33N 41°49' W 071°24'1 0.8
2014-Oct-21 12:33N 41°48' W 071°24'2 1.5
2014-Oct-21 11:32N 41°47' W 071°22'2 1.6
2014-Oct-21 10:32N 41°48' W 071°24'1 0.8
2014-Oct-21 09:33N 41°49' W 071°24'0 0.0
2014-Oct-21 08:33N 41°49' W 071°24'0 0.0
2014-Oct-21 07:33N 41°49' W 071°24'0 0.0
2014-Oct-21 06:33N 41°49' W 071°24'7 7.2
2014-Oct-21 05:33N 41°42' W 071°20'9 9.0
2014-Oct-21 04:32N 41°33' W 071°19'7 7.5
2014-Oct-21 03:33N 41°26' W 071°20'13 1.4
2014-Oct-20 18:24N 41°25' W 071°03'7 8.9
2014-Oct-20 17:33N 41°25' W 071°13'7 6.9
2014-Oct-20 16:33N 41°29' W 071°21'8 8.1
2014-Oct-20 15:34N 41°37' W 071°24'0 0.2
2014-Oct-20 13:23N 41°37' W 071°24'0 0.0
2014-Oct-20 12:33N 41°37' W 071°24'0 0.0
2014-Oct-20 11:33N 41°37' W 071°24'0 0.0
2014-Oct-20 10:33N 41°37' W 071°24'0 0.0
2014-Oct-20 09:33N 41°37' W 071°24'0 0.0
2014-Oct-20 08:33N 41°37' W 071°24'0 0.0
2014-Oct-20 07:33N 41°37' W 071°24'0 0.0
2014-Oct-20 06:33N 41°37' W 071°24'0 0.0
2014-Oct-20 05:33N 41°37' W 071°24'0 0.0
2014-Oct-20 04:33N 41°37' W 071°24'0 0.0
2014-Oct-20 03:33N 41°37' W 071°24'1 0.8
2014-Oct-20 02:33N 41°36' W 071°24'1 1.1
2014-Oct-20 01:32N 41°35' W 071°24'1 1.2
2014-Oct-20 00:27N 41°35' W 071°23'7 7.8
2014-Oct-19 23:33N 41°28' W 071°22'14 1.9
2014-Oct-19 16:19N 41°24' W 071°04'5 7.2
2014-Oct-19 15:33N 41°23' W 071°12'9 8.8
2014-Oct-19 14:33N 41°27' W 071°22'9 9.2
2014-Oct-19 13:33N 41°36' W 071°18'7 7.2
2014-Oct-19 12:33N 41°43' W 071°20'7 6.8
2014-Oct-19 11:33N 41°49' W 071°24'0 0.0
2014-Oct-19 10:33N 41°49' W 071°24'0 0.0
2014-Oct-19 09:33N 41°49' W 071°24'0 0.0
2014-Oct-19 08:33N 41°49' W 071°24'0 0.0
2014-Oct-19 07:33N 41°49' W 071°24'0 0.0
2014-Oct-19 06:33N 41°49' W 071°24'0 0.0
2014-Oct-19 05:33N 41°49' W 071°24'0 0.0
2014-Oct-19 04:33N 41°49' W 071°24'0 0.0
2014-Oct-19 03:33N 41°49' W 071°24'0 0.0
2014-Oct-19 02:33N 41°49' W 071°24'1 0.8
2014-Oct-19 01:33N 41°48' W 071°24'1 0.8
2014-Oct-19 00:33N 41°49' W 071°24'0 0.0
2014-Oct-18 23:33N 41°49' W 071°24'0 0.0
2014-Oct-18 22:33N 41°49' W 071°24'0 0.0
2014-Oct-18 21:33N 41°49' W 071°24'0 0.0
2014-Oct-18 20:33N 41°49' W 071°24'0 0.0
2014-Oct-18 19:32N 41°49' W 071°24'0 0.0
2014-Oct-18 18:33N 41°49' W 071°24'0 0.0
2014-Oct-18 17:33N 41°49' W 071°24'2 2.3
2014-Oct-18 16:33N 41°47' W 071°22'2 2.3
2014-Oct-18 15:33N 41°49' W 071°24'0 0.0
2014-Oct-18 14:33N 41°49' W 071°24'0 0.0
2014-Oct-18 13:33N 41°49' W 071°24'0 0.0
2014-Oct-18 12:33N 41°49' W 071°24'0 0.0
2014-Oct-18 11:33N 41°49' W 071°24'0 0.0
2014-Oct-18 10:33N 41°49' W 071°24'0 0.0
2014-Oct-18 09:33N 41°49' W 071°24'0 0.0
2014-Oct-18 08:33N 41°49' W 071°24'1 1.2
2014-Oct-18 07:33N 41°48' W 071°23'0 0.0
2014-Oct-18 06:30N 41°48' W 071°23'0 0.0
2014-Oct-18 05:31N 41°48' W 071°23'1 0.7
2014-Oct-18 04:33N 41°47' W 071°23'7 6.9
2014-Oct-18 03:33N 41°41' W 071°21'5 4.6
2014-Oct-18 02:33N 41°37' W 071°24'0 0.0
2014-Oct-18 01:33N 41°37' W 071°24'0 0.0
2014-Oct-18 00:33N 41°37' W 071°24'0 0.0
2014-Oct-17 23:33N 41°37' W 071°24'0 0.0
2014-Oct-17 22:33N 41°37' W 071°24'0 0.0
2014-Oct-17 21:30N 41°37' W 071°24'0 0.0
2014-Oct-17 20:32N 41°37' W 071°24'0 0.0
2014-Oct-17 19:30N 41°37' W 071°24'0 0.0
2014-Oct-17 18:33N 41°37' W 071°24'0 0.0
2014-Oct-17 17:33N 41°37' W 071°24'0 0.3
2014-Oct-17 16:33N 41°37' W 071°24'8 8.2
2014-Oct-17 15:33N 41°29' W 071°21'7 6.6
2014-Oct-17 14:32N 41°24' W 071°15'8 7.5
2014-Oct-17 13:30N 41°24' W 071°05'8 7.8
2014-Oct-17 12:32N 41°29' W 070°57'3 1.0
2014-Oct-17 09:10N 41°30' W 070°52'4 5.1
2014-Oct-17 08:27N 41°28' W 070°57'5 5.2
2014-Oct-17 07:33N 41°26' W 071°02'5 4.6
2014-Oct-17 06:33N 41°25' W 071°08'5 5.3
2014-Oct-17 05:33N 41°29' W 071°13'6 5.5
2014-Oct-17 04:33N 41°35' W 071°13'4 4.0
2014-Oct-17 03:31N 41°39' W 071°15'6 6.5
2014-Oct-17 02:33N 41°43' W 071°21'4 4.4
2014-Oct-17 01:33N 41°47' W 071°23'0 0.0
2014-Oct-17 00:33N 41°47' W 071°23'1 0.6
2014-Oct-16 23:33N 41°47' W 071°22'2 1.6
2014-Oct-16 22:33N 41°48' W 071°24'1 0.7
2014-Oct-16 21:32N 41°48' W 071°23'1 1.5
2014-Oct-16 20:33N 41°49' W 071°24'2 2.1
2014-Oct-16 19:33N 41°47' W 071°23'8 8.1
2014-Oct-16 18:32N 41°39' W 071°22'2 2.5
2014-Oct-16 17:32N 41°37' W 071°24'0 0.0
2014-Oct-16 16:32N 41°37' W 071°24'0 0.0
2014-Oct-16 15:33N 41°37' W 071°24'0 0.0
2014-Oct-16 14:33N 41°37' W 071°24'0 0.0
2014-Oct-16 13:33N 41°37' W 071°24'0 0.0
2014-Oct-16 12:31N 41°37' W 071°24'0 0.0
2014-Oct-16 11:33N 41°37' W 071°24'0 0.0
2014-Oct-16 10:33N 41°37' W 071°24'1 0.7
2014-Oct-16 09:33N 41°36' W 071°24'1 1.2
2014-Oct-16 08:33N 41°35' W 071°25'0 0.0
2014-Oct-16 07:33N 41°35' W 071°24'0 0.0
2014-Oct-16 06:33N 41°35' W 071°24'0 0.0
2014-Oct-16 05:33N 41°35' W 071°25'6 6.3
2014-Oct-16 04:33N 41°41' W 071°21'6 6.2
2014-Oct-16 03:33N 41°47' W 071°22'2 2.3
2014-Oct-16 02:33N 41°49' W 071°24'0 0.0
2014-Oct-16 01:33N 41°49' W 071°24'0 0.0
2014-Oct-16 00:33N 41°49' W 071°24'0 0.0
2014-Oct-15 23:33N 41°49' W 071°24'4 4.5
2014-Oct-15 22:33N 41°45' W 071°22'9 9.1
2014-Oct-15 21:33N 41°36' W 071°18'9 9.1
2014-Oct-15 20:33N 41°28' W 071°22'8 8.2
2014-Oct-15 19:33N 41°26' W 071°11'10 9.6
2014-Oct-15 18:33N 41°28' W 070°59'10 9.5
2014-Oct-15 17:33N 41°33' W 070°48'14 3.3
2014-Oct-15 13:11N 41°45' W 070°36'7 6.7
2014-Oct-15 12:09N 41°39' W 070°41'5 7.7
2014-Oct-15 11:33N 41°35' W 070°44'4 4.1
2014-Oct-15 10:30N 41°32' W 070°48'6 6.8
2014-Oct-15 09:33N 41°29' W 070°55'7 6.7
2014-Oct-15 08:33N 41°25' W 071°03'7 7.5
2014-Oct-15 07:33N 41°25' W 071°13'7 6.7
2014-Oct-15 06:33N 41°26' W 071°22'7 6.8
2014-Oct-15 05:33N 41°33' W 071°21'4 3.7
2014-Oct-15 04:33N 41°35' W 071°24'0 0.0
2014-Oct-15 03:33N 41°35' W 071°24'0 0.0
2014-Oct-15 02:33N 41°35' W 071°24'0 0.0
2014-Oct-15 01:33N 41°35' W 071°24'1 1.0
2014-Oct-15 00:33N 41°36' W 071°24'1 0.9
2014-Oct-14 23:33N 41°37' W 071°24'0 0.0
2014-Oct-14 22:33N 41°37' W 071°24'0 0.0
2014-Oct-14 21:33N 41°37' W 071°24'0 0.0
2014-Oct-14 20:33N 41°37' W 071°24'0 0.0
2014-Oct-14 19:32N 41°37' W 071°24'0 0.0
2014-Oct-14 18:33N 41°37' W 071°24'0 0.0
2014-Oct-14 17:33N 41°37' W 071°24'0 0.0
2014-Oct-14 16:33N 41°37' W 071°24'0 0.0
2014-Oct-14 15:33N 41°37' W 071°24'0 0.0
2014-Oct-14 14:33N 41°37' W 071°24'0 0.0
2014-Oct-14 13:33N 41°37' W 071°24'0 0.0
2014-Oct-14 12:33N 41°37' W 071°24'0 0.0
2014-Oct-14 11:33N 41°37' W 071°24'0 0.0
2014-Oct-14 10:32N 41°37' W 071°24'1 0.6
2014-Oct-14 09:32N 41°36' W 071°24'1 1.4
2014-Oct-14 08:33N 41°35' W 071°24'0 0.0
2014-Oct-14 07:33N 41°35' W 071°24'6 6.1
2014-Oct-14 06:33N 41°41' W 071°21'8 7.6
2014-Oct-14 05:33N 41°48' W 071°23'1 1.0
2014-Oct-14 04:33N 41°49' W 071°24'0 0.0
2014-Oct-14 03:33N 41°49' W 071°24'0 0.0
2014-Oct-14 02:33N 41°49' W 071°24'0 0.0
2014-Oct-14 01:33N 41°49' W 071°24'0 0.0
2014-Oct-14 00:33N 41°49' W 071°24'0 0.0
2014-Oct-13 23:33N 41°49' W 071°24'0 0.0
2014-Oct-13 22:33N 41°49' W 071°24'0 0.0
2014-Oct-13 21:33N 41°49' W 071°24'0 0.0
2014-Oct-13 20:33N 41°49' W 071°24'5 4.8
2014-Oct-13 19:33N 41°44' W 071°22'9 8.7
2014-Oct-13 18:31N 41°36' W 071°18'9 9.2
2014-Oct-13 17:32N 41°27' W 071°22'9 8.8
2014-Oct-13 16:33N 41°26' W 071°11'9 9.4
2014-Oct-13 15:33N 41°28' W 070°59'9 9.4
2014-Oct-13 14:33N 41°34' W 070°48'10 9.6
2014-Oct-13 13:33N 41°41' W 070°40'5 2.1
2014-Oct-13 11:19N 41°45' W 070°36'5 6.5
2014-Oct-13 10:33N 41°41' W 070°41'8 7.6
2014-Oct-13 09:28N 41°33' W 070°45'7 5.4
2014-Oct-13 08:06N 41°29' W 070°54'4 7.4
2014-Oct-13 07:34N 41°28' W 070°59'6 5.6
2014-Oct-13 06:33N 41°25' W 071°05'9 8.5
2014-Oct-13 05:33N 41°25' W 071°16'7 6.5
2014-Oct-13 04:33N 41°31' W 071°20'9 9.3
2014-Oct-13 03:33N 41°41' W 071°19'9 8.7
2014-Oct-13 02:33N 41°48' W 071°24'  

Dump ship's entire track history